Welcome to Des Moines Iowa Weather. I am an independent private personal weather station on the Northwest Side of Des Moines, Iowa. Just East of Windsor Heights and just West of Glendale . This site is also mobile friendly.

There are no active watches, warnings or advisories


Visit our other weather sites:

Historical Data

Weather Station Setup



Weather Underground History page Text

Daily Summary for July 6, 2017 Units:  English    Metric   Both
« Previous Day
Next Day »
Daily Weekly Monthly Yearly Custom
  High: Low: Average:
Temperature: 95.0 °F 70.6 °F 82.4 °F
Dew Point: 74.0 °F 67.0 °F 71.2 °F
Humidity: 93 % 46 % 71 %
Wind Speed: 3.0 mph 0.0 mph 0.3 mph
Wind Gust: 8.0 mph - -
Wind:- - South
Pressure: 29.99 in 29.84 in -
Precipitation: 0.00 in    
Historical Graphs
 
 
Tabular Data for July 6, 2017
Time Temperature Dew Point Pressure Wind Wind Speed Wind Gust Humidity Rainfall Rate (Hourly)
00:08 75.7 °F 69.0 °F 29.99 in Calm     80 % 0.00 in
00:23 75.3 °F 69.0 °F 29.98 in Calm     81 % 0.00 in
00:38 75.1 °F 69.0 °F 29.98 in Calm     82 % 0.00 in
00:53 74.8 °F 69.0 °F 29.98 in Calm     82 % 0.00 in
01:08 74.6 °F 69.0 °F 29.97 in Calm     83 % 0.00 in
01:23 74.2 °F 69.0 °F 29.98 in Calm     83 % 0.00 in
01:38 73.9 °F 69.0 °F 29.97 in Calm     84 % 0.00 in
01:53 73.5 °F 69.0 °F 29.98 in Calm     85 % 0.00 in
02:08 73.2 °F 69.0 °F 29.99 in Calm     85 % 0.00 in
02:23 72.9 °F 68.0 °F 29.98 in Calm     85 % 0.00 in
02:38 72.6 °F 68.0 °F 29.97 in Calm     85 % 0.00 in
02:53 72.4 °F 68.0 °F 29.96 in Calm     85 % 0.00 in
03:08 72.5 °F 67.0 °F 29.95 in Calm     84 % 0.00 in
03:23 72.5 °F 67.0 °F 29.95 in Calm     84 % 0.00 in
03:38 72.4 °F 67.0 °F 29.95 in Calm     84 % 0.00 in
04:08 72.2 °F 68.0 °F 29.94 in Calm     85 % 0.00 in
04:23 72.1 °F 68.0 °F 29.95 in Calm     86 % 0.00 in
04:46 71.9 °F 68.0 °F 29.96 in Calm     88 % 0.00 in
04:53 71.7 °F 68.0 °F 29.98 in Calm     88 % 0.00 in
05:08 71.4 °F 68.0 °F 29.98 in Calm     88 % 0.00 in
05:23 71.1 °F 68.0 °F 29.98 in Calm     89 % 0.00 in
05:38 71.0 °F 68.0 °F 29.98 in Calm     90 % 0.00 in
05:53 70.8 °F 68.0 °F 29.97 in Calm     90 % 0.00 in
06:08 70.6 °F 68.0 °F 29.96 in Calm     90 % 0.00 in
06:23 70.6 °F 68.0 °F 29.96 in Calm     91 % 0.00 in
06:38 70.7 °F 68.0 °F 29.96 in Calm     92 % 0.00 in
06:53 70.8 °F 68.0 °F 29.97 in Calm     92 % 0.00 in
07:08 71.2 °F 69.0 °F 29.96 in Calm     93 % 0.00 in
07:23 71.7 °F 70.0 °F 29.96 in Calm   3.0 mph 93 % 0.00 in
07:38 72.2 °F 70.0 °F 29.96 in Calm     93 % 0.00 in
07:53 72.9 °F 71.0 °F 29.96 in Calm   3.0 mph 92 % 0.00 in
08:09 73.9 °F 71.0 °F 29.96 in Calm   3.0 mph 91 % 0.00 in
08:24 75.1 °F 71.0 °F 29.96 in SSE 2.0 mph 5.0 mph 88 % 0.00 in
08:39 76.1 °F 72.0 °F 29.95 in Calm   3.0 mph 86 % 0.00 in
08:54 76.9 °F 72.0 °F 29.96 in SSW 3.0 mph 3.0 mph 84 % 0.00 in
09:09 77.8 °F 72.0 °F 29.96 in Calm   3.0 mph 82 % 0.00 in
09:24 78.4 °F 73.0 °F 29.96 in South 3.0 mph 3.0 mph 82 % 0.00 in
09:39 79.3 °F 73.0 °F 29.97 in ESE 2.0 mph 4.0 mph 81 % 0.00 in
09:54 80.2 °F 73.0 °F 29.97 in Calm   4.0 mph 78 % 0.00 in
10:09 81.1 °F 73.0 °F 29.97 in Calm   4.0 mph 77 % 0.00 in
10:24 81.9 °F 74.0 °F 29.97 in Calm   4.0 mph 76 % 0.00 in
10:39 82.9 °F 73.0 °F 29.96 in West 2.0 mph 6.0 mph 72 % 0.00 in
10:54 84.6 °F 73.0 °F 29.96 in Calm   3.0 mph 68 % 0.00 in
11:09 86.5 °F 73.0 °F 29.96 in Calm   4.0 mph 65 % 0.00 in
11:24 87.8 °F 74.0 °F 29.96 in SSE 1.0 mph 5.0 mph 63 % 0.00 in
11:39 88.8 °F 73.0 °F 29.95 in Calm   6.0 mph 60 % 0.00 in
11:54 89.5 °F 73.0 °F 29.95 in Calm   3.0 mph 59 % 0.00 in
12:10 90.0 °F 73.0 °F 29.94 in Calm   6.0 mph 58 % 0.00 in
12:24 90.8 °F 73.0 °F 29.93 in Calm   8.0 mph 56 % 0.00 in
12:40 91.4 °F 73.0 °F 29.93 in Calm   5.0 mph 55 % 0.00 in
12:55 91.6 °F 72.0 °F 29.92 in Calm   7.0 mph 52 % 0.00 in
13:10 92.2 °F 72.0 °F 29.93 in Calm   6.0 mph 51 % 0.00 in
13:25 92.4 °F 73.0 °F 29.92 in Calm   6.0 mph 53 % 0.00 in
13:40 92.9 °F 71.0 °F 29.92 in Calm   4.0 mph 49 % 0.00 in
14:10 93.6 °F 72.0 °F 29.91 in Calm   6.0 mph 50 % 0.00 in
14:25 93.6 °F 72.0 °F 29.91 in SSE 1.0 mph 6.0 mph 49 % 0.00 in
14:40 93.5 °F 73.0 °F 29.90 in Calm   3.0 mph 51 % 0.00 in
14:55 93.9 °F 72.0 °F 29.90 in SSE 1.0 mph 7.0 mph 49 % 0.00 in
15:10 94.2 °F 73.0 °F 29.90 in Calm   6.0 mph 50 % 0.00 in
15:25 94.4 °F 72.0 °F 29.90 in Calm   3.0 mph 48 % 0.00 in
15:40 94.6 °F 71.0 °F 29.89 in South 2.0 mph 5.0 mph 47 % 0.00 in
15:55 94.7 °F 71.0 °F 29.89 in Calm   7.0 mph 47 % 0.00 in
16:10 94.9 °F 72.0 °F 29.89 in NNE 3.0 mph 3.0 mph 47 % 0.00 in
16:25 94.8 °F 71.0 °F 29.88 in Calm   6.0 mph 46 % 0.00 in
16:40 94.9 °F 71.0 °F 29.88 in SE 1.0 mph 5.0 mph 46 % 0.00 in
16:55 95.0 °F 72.0 °F 29.87 in Calm   2.0 mph 47 % 0.00 in
17:10 94.6 °F 71.0 °F 29.87 in Calm   7.0 mph 46 % 0.00 in
17:25 94.4 °F 73.0 °F 29.87 in Calm   4.0 mph 50 % 0.00 in
17:40 94.2 °F 72.0 °F 29.87 in Calm   7.0 mph 49 % 0.00 in
17:55 93.8 °F 72.0 °F 29.86 in West 2.0 mph 6.0 mph 49 % 0.00 in
18:10 93.7 °F 73.0 °F 29.86 in Calm   3.0 mph 51 % 0.00 in
18:25 93.1 °F 73.0 °F 29.85 in Calm   3.0 mph 53 % 0.00 in
18:40 91.6 °F 73.0 °F 29.86 in Calm   5.0 mph 54 % 0.00 in
18:55 90.4 °F 73.0 °F 29.86 in Calm   3.0 mph 57 % 0.00 in
19:10 89.6 °F 73.0 °F 29.85 in Calm   4.0 mph 59 % 0.00 in
19:25 88.9 °F 74.0 °F 29.85 in Calm   6.0 mph 61 % 0.00 in
19:40 88.3 °F 74.0 °F 29.85 in Calm   1.0 mph 62 % 0.00 in
19:55 87.7 °F 74.0 °F 29.85 in Calm   2.0 mph 63 % 0.00 in
20:10 87.1 °F 74.0 °F 29.85 in WSW 2.0 mph 2.0 mph 65 % 0.00 in
20:25 86.4 °F 73.0 °F 29.85 in Calm   1.0 mph 65 % 0.00 in
20:40 85.7 °F 73.0 °F 29.85 in Calm   2.0 mph 66 % 0.00 in
20:55 85.1 °F 73.0 °F 29.85 in Calm   1.0 mph 68 % 0.00 in
21:10 84.4 °F 73.0 °F 29.84 in Calm     69 % 0.00 in
21:25 83.8 °F 73.0 °F 29.84 in Calm     70 % 0.00 in
21:40 83.2 °F 73.0 °F 29.85 in Calm     71 % 0.00 in
21:55 82.8 °F 73.0 °F 29.85 in Calm     72 % 0.00 in
22:11 82.3 °F 73.0 °F 29.85 in Calm     74 % 0.00 in
22:25 81.8 °F 73.0 °F 29.85 in Calm     75 % 0.00 in
22:40 81.4 °F 73.0 °F 29.85 in Calm     75 % 0.00 in
22:55 81.1 °F 73.0 °F 29.85 in Calm     76 % 0.00 in
23:10 80.7 °F 73.0 °F 29.85 in Calm     77 % 0.00 in
23:25 80.3 °F 73.0 °F 29.85 in Calm     78 % 0.00 in
23:40 79.9 °F 73.0 °F 29.85 in Calm   1.0 mph 78 % 0.00 in
23:55 79.7 °F 72.0 °F 29.85 in Calm   1.0 mph 78 % 0.00 in
Des Moines Weather and Climate
Compliments of Weather Underground - 3 mb

Script developed by  Jim McMurry - jmcmurry@mwt.net Adapted for the template by  Wim van der Kuil - Leuven-Template.eu

You find our weather info also at:

Weather Underground

Equipment we use:

Weather-station
Davis VP2 Plus

Weather-program
Davis Weatherlink.Com

Weather-server
iMac (Retina 4K, 21.5-inch, Late 2015)

Provider
Hostmonster.com

Davis VP2 Plus

Davis Weatherlink.Com

iMac (Retina 4K, 21.5-inch, Late 2015)

Hostmonster.com